createdAt,value
2022-08-16T00:03:43.237Z,22.85
2022-08-16T00:08:45.885Z,22.79
2022-08-16T00:13:53.049Z,22.82
2022-08-16T00:18:56.515Z,22.81
2022-08-16T00:23:58.795Z,22.77
2022-08-16T00:29:00.612Z,22.78
2022-08-16T00:34:04.468Z,22.78
2022-08-16T00:39:06.528Z,22.72
2022-08-16T00:44:20.673Z,22.63
2022-08-16T00:49:22.488Z,22.56
2022-08-16T00:54:29.514Z,22.46
2022-08-16T00:59:34.314Z,22.39
2022-08-16T01:04:37.240Z,22.35
2022-08-16T01:09:42.884Z,22.23
2022-08-16T01:14:48.372Z,22.08
2022-08-16T01:19:57.125Z,21.99
2022-08-16T01:25:05.701Z,21.98
2022-08-16T01:30:20.224Z,21.93
2022-08-16T01:35:28.722Z,21.88
2022-08-16T01:40:36.770Z,21.75
2022-08-16T01:45:41.551Z,21.73
2022-08-16T01:51:08.857Z,21.70
2022-08-16T01:56:07.070Z,21.63
2022-08-16T02:01:08.727Z,21.59
2022-08-16T02:06:10.452Z,21.55
2022-08-16T02:11:13.575Z,21.47
2022-08-16T02:16:18.406Z,21.45
2022-08-16T02:21:31.233Z,21.41
2022-08-16T02:26:34.238Z,21.38
2022-08-16T02:32:03.434Z,21.31
2022-08-16T02:36:58.822Z,21.31
2022-08-16T02:42:01.319Z,21.26
2022-08-16T02:47:02.907Z,21.20
2022-08-16T02:52:05.340Z,21.14
2022-08-16T02:57:11.357Z,21.11
2022-08-16T03:02:13.508Z,21.04
2022-08-16T03:07:27.480Z,21.00
2022-08-16T03:12:30.300Z,20.94
2022-08-16T03:17:53.365Z,20.87
2022-08-16T03:22:56.478Z,20.88
2022-08-16T03:27:58.269Z,20.87
2022-08-16T03:33:02.483Z,20.81
2022-08-16T03:38:34.470Z,20.79
2022-08-16T03:43:51.339Z,20.79
2022-08-16T03:48:51.693Z,20.70
2022-08-16T03:54:00.769Z,20.54
2022-08-16T03:59:03.380Z,20.58
2022-08-16T04:04:04.948Z,20.67
2022-08-16T04:09:06.563Z,20.69
2022-08-16T04:14:33.383Z,20.74
2022-08-16T04:19:36.093Z,20.82
2022-08-16T04:24:38.130Z,20.85
2022-08-16T04:29:46.310Z,20.93
2022-08-16T04:34:48.161Z,20.97
2022-08-16T04:39:55.368Z,20.95
2022-08-16T04:44:58.941Z,21.02
2022-08-16T04:50:08.986Z,21.15
2022-08-16T04:55:15.273Z,21.26
2022-08-16T05:00:30.905Z,21.34
2022-08-16T05:05:44.735Z,21.42
2022-08-16T05:10:47.152Z,21.53
2022-08-16T05:15:49.886Z,21.67
2022-08-16T05:21:01.620Z,21.78
2022-08-16T05:26:20.124Z,21.94
2022-08-16T05:31:22.101Z,22.12
2022-08-16T05:36:36.319Z,22.26
2022-08-16T05:41:45.510Z,22.49
2022-08-16T05:46:47.659Z,22.77
2022-08-16T05:51:49.252Z,23.00
2022-08-16T05:56:50.868Z,23.26
2022-08-16T06:01:53.176Z,23.42
2022-08-16T06:06:56.509Z,23.66
2022-08-16T06:12:00.739Z,23.82
2022-08-16T06:17:05.546Z,24.01
2022-08-16T06:22:07.324Z,24.27
2022-08-16T06:27:10.866Z,24.48
2022-08-16T06:32:27.311Z,24.63
2022-08-16T06:37:37.065Z,24.90
2022-08-16T06:42:55.325Z,25.04
2022-08-16T06:47:59.027Z,25.20
2022-08-16T06:53:06.697Z,25.32
2022-08-16T06:58:22.466Z,25.32
2022-08-16T07:03:27.451Z,25.51
2022-08-16T07:08:29.901Z,25.54
2022-08-16T07:19:01.478Z,25.73
2022-08-16T07:24:05.941Z,25.77
2022-08-16T07:29:07.912Z,25.66
2022-08-16T07:34:09.972Z,25.66
2022-08-16T07:39:13.822Z,25.75
2022-08-16T07:44:16.917Z,26.17
2022-08-16T07:49:18.737Z,26.33
2022-08-16T07:54:21.131Z,26.27
2022-08-16T07:59:24.734Z,26.30
2022-08-16T08:04:26.662Z,26.33
2022-08-16T08:09:35.332Z,26.49
2022-08-16T08:14:48.911Z,26.79
2022-08-16T08:19:53.304Z,27.07
2022-08-16T08:24:59.605Z,27.27
2022-08-16T08:30:50.074Z,27.17
2022-08-16T08:35:29.081Z,27.30
2022-08-16T08:40:30.771Z,27.53
2022-08-16T08:45:49.345Z,27.52
2022-08-16T08:50:54.072Z,27.57
2022-08-16T08:55:59.690Z,27.61
2022-08-16T09:01:02.095Z,27.84
2022-08-16T09:06:05.540Z,28.00
2022-08-16T09:11:08.670Z,28.19
2022-08-16T09:16:12.913Z,28.33
2022-08-16T09:21:34.513Z,28.39
2022-08-16T09:26:44.607Z,28.26
2022-08-16T09:31:53.541Z,28.31
2022-08-16T09:36:57.990Z,28.46
2022-08-16T09:42:03.063Z,28.78
2022-08-16T09:47:10.347Z,28.58
2022-08-16T09:52:12.289Z,28.62
2022-08-16T09:57:13.953Z,28.74
2022-08-16T10:02:27.326Z,28.87
2022-08-16T10:07:44.604Z,29.15
2022-08-16T10:13:05.803Z,29.14
2022-08-16T10:18:56.491Z,29.22
2022-08-16T10:23:31.175Z,29.24
2022-08-16T10:28:39.372Z,29.10
2022-08-16T10:33:42.159Z,28.93
2022-08-16T10:38:44.323Z,29.21
2022-08-16T10:43:45.897Z,29.44
2022-08-16T10:48:52.466Z,29.75
2022-08-16T10:53:54.168Z,29.59
2022-08-16T10:59:29.561Z,29.88
2022-08-16T11:15:16.936Z,29.53
2022-08-16T11:31:05.266Z,29.94
2022-08-16T11:36:27.370Z,30.00
2022-08-16T11:41:29.446Z,29.82
2022-08-16T11:46:46.023Z,29.78
2022-08-16T11:51:50.068Z,29.78
2022-08-16T11:56:56.869Z,30.05
2022-08-16T12:02:04.369Z,29.97
2022-08-16T12:07:23.900Z,30.02
2022-08-16T12:12:25.706Z,30.10
2022-08-16T12:17:32.305Z,30.19
2022-08-16T12:22:47.364Z,30.17
2022-08-16T12:27:51.383Z,30.27
2022-08-16T12:32:57.791Z,30.29
2022-08-16T12:38:01.375Z,30.13
2022-08-16T12:43:23.781Z,30.24
2022-08-16T12:48:49.487Z,30.29
2022-08-16T12:53:53.245Z,30.37
2022-08-16T12:58:56.777Z,30.41
2022-08-16T13:04:11.822Z,30.35
2022-08-16T13:09:26.585Z,30.41
2022-08-16T13:14:34.269Z,30.45
2022-08-16T13:20:06.016Z,30.44
2022-08-16T13:24:58.554Z,30.42
2022-08-16T13:30:00.287Z,30.53
2022-08-16T13:35:01.949Z,30.43
2022-08-16T13:40:05.979Z,30.41
2022-08-16T13:45:13.358Z,30.45
2022-08-16T13:50:17.454Z,30.48
2022-08-16T13:55:33.173Z,30.61
2022-08-16T14:00:35.316Z,30.49
2022-08-16T14:05:36.984Z,30.32
2022-08-16T14:10:39.539Z,30.20
2022-08-16T14:15:41.850Z,30.38
2022-08-16T14:20:48.703Z,30.35
2022-08-16T14:25:54.403Z,30.65
2022-08-16T14:31:00.129Z,30.56
2022-08-16T14:36:01.724Z,30.68
2022-08-16T14:41:04.640Z,30.54
2022-08-16T14:46:11.928Z,30.49
2022-08-16T14:51:15.862Z,30.38
2022-08-16T14:56:38.887Z,30.60
2022-08-16T15:01:59.857Z,30.51
2022-08-16T15:07:00.883Z,30.45
2022-08-16T15:12:07.710Z,30.38
2022-08-16T15:17:34.041Z,30.51
2022-08-16T15:22:42.766Z,30.41
2022-08-16T15:27:45.753Z,30.35
2022-08-16T15:33:05.249Z,30.31
2022-08-16T15:38:08.857Z,30.27
2022-08-16T15:43:11.135Z,30.24
2022-08-16T15:48:13.197Z,30.13
2022-08-16T15:53:22.680Z,30.03
2022-08-16T15:58:35.749Z,29.97
2022-08-16T16:03:40.395Z,29.95
2022-08-16T16:08:42.992Z,29.86
2022-08-16T16:13:44.670Z,29.91
2022-08-16T16:18:49.097Z,29.84
2022-08-16T16:23:54.739Z,29.74
2022-08-16T16:29:08.290Z,29.59
2022-08-16T16:34:16.888Z,29.53
2022-08-16T16:39:19.293Z,29.48
2022-08-16T16:44:31.778Z,29.33
2022-08-16T16:49:35.534Z,29.26
2022-08-16T16:54:43.338Z,29.23
2022-08-16T16:59:50.100Z,29.12
2022-08-16T17:04:57.434Z,29.03
2022-08-16T17:09:59.840Z,28.97
2022-08-16T17:15:02.310Z,28.91
2022-08-16T17:20:05.454Z,28.79
2022-08-16T17:25:15.040Z,28.69
2022-08-16T17:30:29.374Z,28.62
2022-08-16T17:35:38.955Z,28.55
2022-08-16T17:40:58.070Z,28.41
2022-08-16T17:46:01.414Z,28.30
2022-08-16T17:51:06.031Z,28.16
2022-08-16T17:56:07.609Z,28.03
2022-08-16T18:01:10.418Z,27.87
2022-08-16T18:06:13.569Z,27.69
2022-08-16T18:11:26.132Z,27.58
2022-08-16T18:16:28.166Z,27.41
2022-08-16T18:21:48.547Z,27.27
2022-08-16T18:26:50.359Z,27.14
2022-08-16T18:31:52.032Z,27.01
2022-08-16T18:36:53.657Z,26.89
2022-08-16T18:41:55.265Z,26.75
2022-08-16T18:46:56.934Z,26.64
2022-08-16T18:51:59.987Z,26.53
2022-08-16T18:57:07.242Z,26.43
2022-08-16T19:02:09.398Z,26.36
2022-08-16T19:07:31.815Z,26.24
2022-08-16T19:12:38.799Z,26.16
2022-08-16T19:17:45.521Z,26.05
2022-08-16T19:23:05.702Z,25.98
2022-08-16T19:28:09.847Z,25.88
2022-08-16T19:33:31.974Z,25.80
2022-08-16T19:38:33.673Z,25.70
2022-08-16T19:43:35.855Z,25.63
2022-08-16T19:48:37.534Z,25.62
2022-08-16T19:53:39.101Z,25.52
2022-08-16T19:58:56.122Z,25.44
2022-08-16T20:04:03.646Z,25.35
2022-08-16T20:09:05.801Z,25.26
2022-08-16T20:14:07.392Z,25.21
2022-08-16T20:19:08.975Z,25.18
2022-08-16T20:24:32.932Z,25.13
2022-08-16T20:29:32.161Z,25.09
2022-08-16T20:34:34.042Z,25.06
2022-08-16T20:39:38.791Z,25.01
2022-08-16T20:44:41.586Z,24.96
2022-08-16T20:49:43.438Z,24.90
2022-08-16T20:54:46.129Z,24.84
2022-08-16T20:59:50.190Z,24.75
2022-08-16T21:04:52.624Z,24.65
2022-08-16T21:09:54.207Z,24.58
2022-08-16T21:14:55.807Z,24.51
2022-08-16T21:19:57.389Z,24.46
2022-08-16T21:25:00.035Z,24.41
2022-08-16T21:30:01.722Z,24.37
2022-08-16T21:35:12.613Z,24.29
2022-08-16T21:40:14.308Z,24.22
2022-08-16T21:45:16.100Z,24.15
2022-08-16T21:50:17.781Z,24.12
2022-08-16T21:55:19.447Z,24.09
2022-08-16T22:00:21.205Z,24.04
2022-08-16T22:05:24.174Z,23.98
2022-08-16T22:11:06.995Z,23.89
2022-08-16T22:15:48.276Z,23.83
2022-08-16T22:20:50.963Z,23.82
2022-08-16T22:25:54.977Z,24.00
2022-08-16T22:30:56.954Z,23.83
2022-08-16T22:36:01.751Z,23.81
2022-08-16T22:41:04.762Z,23.71
2022-08-16T22:46:06.599Z,23.69
2022-08-16T22:51:08.246Z,23.61
2022-08-16T22:56:10.188Z,23.52
2022-08-16T23:01:13.266Z,23.52
2022-08-16T23:06:15.979Z,23.51
2022-08-16T23:11:22.672Z,23.47
2022-08-16T23:16:33.134Z,23.36
2022-08-16T23:21:37.512Z,23.32
2022-08-16T23:26:45.790Z,23.24
2022-08-16T23:31:49.898Z,23.15
2022-08-16T23:36:51.552Z,23.09
2022-08-16T23:41:53.286Z,23.06
2022-08-16T23:46:54.891Z,22.98
2022-08-16T23:51:56.503Z,22.89
2022-08-16T23:56:58.084Z,22.85
